Time;durP1;ratioP1;P1;durP2;ratioP2;P2;SDS_P1;SDS_P2;PMS_P1;PMS_P2;Temp;Humidity;BMP_temperature;BMP_pressure;BME280_temperature;BME280_humidity;BME280_pressure;Samples;Min_cycle;Max_cycle;Signal;HPM_P1;HPM_P2
2024/01/23 00:02:13;;;;;;;0.60;0.60;;;;;;;;;;6215315;23;20371;-69
2024/01/23 00:04:39;;;;;;;0.60;0.60;;;;;;;;;;6215801;23;20382;-69
2024/01/23 00:07:05;;;;;;;2.50;0.93;;;;;;;;;;6215587;23;20821;-69
2024/01/23 00:09:31;;;;;;;1.80;0.93;;;;;;;;;;6216615;23;20497;-69
2024/01/23 00:11:58;;;;;;;6.23;1.27;;;;;;;;;;6217367;23;20394;-70
2024/01/23 00:14:24;;;;;;;2.10;0.90;;;;;;;;;;6217316;23;20826;-70
2024/01/23 00:16:50;;;;;;;2.10;0.80;;;;;;;;;;6216834;23;20389;-70
2024/01/23 00:19:16;;;;;;;3.13;0.93;;;;;;;;;;6218080;23;20705;-70
2024/01/23 00:21:42;;;;;;;2.43;0.73;;;;;;;;;;6217351;23;20748;-69
2024/01/23 00:24:09;;;;;;;3.43;0.70;;;;;;;;;;6217699;23;20383;-69
2024/01/23 00:26:35;;;;;;;6.70;1.00;;;;;;;;;;6217659;23;20375;-69
2024/01/23 00:29:03;;;;;;;0.60;0.60;;;;;;;;;;6217676;23;20943;-69
2024/01/23 00:31:29;;;;;;;0.93;0.93;;;;;;;;;;6190730;23;20387;-70
2024/01/23 00:33:55;;;;;;;1.93;1.10;;;;;;;;;;6217545;23;20393;-69
2024/01/23 00:36:21;;;;;;;1.33;0.70;;;;;;;;;;6217407;23;20383;-69
2024/01/23 00:38:47;;;;;;;2.93;0.80;;;;;;;;;;6217480;23;20822;-69
2024/01/23 00:41:13;;;;;;;1.23;1.10;;;;;;;;;;6217586;23;20469;-69
2024/01/23 00:43:39;;;;;;;1.40;1.30;;;;;;;;;;6217138;23;20436;-69
2024/01/23 00:46:05;;;;;;;3.70;1.17;;;;;;;;;;6217254;23;20375;-70
2024/01/23 00:48:31;;;;;;;7.03;1.00;;;;;;;;;;6217530;23;20912;-70
2024/01/23 00:50:56;;;;;;;5.63;1.07;;;;;;;;;;6217122;23;20386;-70
2024/01/23 00:53:22;;;;;;;5.03;1.33;;;;;;;;;;6217334;23;20385;-70
2024/01/23 00:55:48;;;;;;;2.17;1.00;;;;;;;;;;6216927;23;20390;-70
2024/01/23 00:58:15;;;;;;;2.83;1.00;;;;;;;;;;6217427;23;20430;-70
2024/01/23 01:00:44;;;;;;;0.63;0.63;;;;;;;;;;6216818;23;20418;-70
2024/01/23 01:03:10;;;;;;;3.83;0.83;;;;;;;;;;6216918;23;20457;-70
2024/01/23 01:05:36;;;;;;;4.27;1.53;;;;;;;;;;6216938;23;20403;-70
2024/01/23 01:08:02;;;;;;;4.53;1.27;;;;;;;;;;6216896;23;20389;-70
2024/01/23 01:10:29;;;;;;;3.43;1.50;;;;;;;;;;6216915;23;20406;-70
2024/01/23 01:12:55;;;;;;;1.57;1.03;;;;;;;;;;6217275;23;20770;-69
2024/01/23 01:15:21;;;;;;;2.93;1.20;;;;;;;;;;6190049;23;20462;-70
2024/01/23 01:17:47;;;;;;;4.57;1.63;;;;;;;;;;6217112;23;20426;-69
2024/01/23 01:20:12;;;;;;;5.23;0.80;;;;;;;;;;6216905;23;20383;-70
2024/01/23 01:22:39;;;;;;;2.37;0.80;;;;;;;;;;6216210;23;20368;-70
2024/01/23 01:25:05;;;;;;;1.50;1.40;;;;;;;;;;6217542;23;20386;-70
2024/01/23 01:27:31;;;;;;;2.60;1.57;;;;;;;;;;6217162;23;20364;-69
2024/01/23 01:29:58;;;;;;;4.03;1.10;;;;;;;;;;6216944;23;20376;-69
2024/01/23 01:32:24;;;;;;;1.83;1.10;;;;;;;;;;6216613;23;20937;-70
2024/01/23 01:34:50;;;;;;;3.77;0.87;;;;;;;;;;6217219;23;20403;-70
2024/01/23 01:37:16;;;;;;;4.47;0.97;;;;;;;;;;6216837;23;20924;-69
2024/01/23 01:39:42;;;;;;;2.57;1.00;;;;;;;;;;6217036;23;20755;-70
2024/01/23 01:42:09;;;;;;;3.27;0.77;;;;;;;;;;6217273;23;20379;-69
2024/01/23 01:44:35;;;;;;;1.23;1.13;;;;;;;;;;6216484;23;20872;-70
2024/01/23 01:47:01;;;;;;;4.90;1.07;;;;;;;;;;6216956;23;20375;-69
2024/01/23 01:49:27;;;;;;;2.10;0.97;;;;;;;;;;6216408;23;20377;-70
2024/01/23 01:51:53;;;;;;;2.03;0.77;;;;;;;;;;6216455;23;20410;-69
2024/01/23 01:54:20;;;;;;;1.30;1.27;;;;;;;;;;6216912;23;20829;-70
2024/01/23 01:56:46;;;;;;;1.07;0.97;;;;;;;;;;6216431;23;20436;-70
2024/01/23 01:59:12;;;;;;;3.47;0.90;;;;;;;;;;6216524;23;20439;-70
2024/01/23 02:01:39;;;;;;;7.20;1.30;;;;;;;;;;6216731;23;20426;-69
2024/01/23 02:04:05;;;;;;;0.73;0.73;;;;;;;;;;6216444;23;20375;-69
2024/01/23 02:06:31;;;;;;;2.00;0.80;;;;;;;;;;6217443;23;20379;-69
2024/01/23 02:08:57;;;;;;;0.60;0.60;;;;;;;;;;6216762;23;20384;-69
2024/01/23 02:11:23;;;;;;;0.50;0.50;;;;;;;;;;6216345;23;20837;-69
2024/01/23 02:13:49;;;;;;;0.60;0.50;;;;;;;;;;6216617;23;20453;-69
2024/01/23 02:16:15;;;;;;;2.57;0.40;;;;;;;;;;6216255;23;20418;-69
2024/01/23 02:18:41;;;;;;;0.83;0.73;;;;;;;;;;6216273;23;20427;-69
2024/01/23 02:21:08;;;;;;;1.63;0.83;;;;;;;;;;6216560;23;20426;-69
2024/01/23 02:23:34;;;;;;;1.17;0.67;;;;;;;;;;6216316;23;20379;-70
2024/01/23 02:26:00;;;;;;;0.80;0.80;;;;;;;;;;6216473;23;20379;-70
2024/01/23 02:28:27;;;;;;;0.80;0.50;;;;;;;;;;6216527;23;20502;-69
2024/01/23 02:30:53;;;;;;;5.27;0.80;;;;;;;;;;6216477;23;20387;-69
2024/01/23 02:33:19;;;;;;;0.90;0.90;;;;;;;;;;6215983;23;20445;-69
2024/01/23 02:35:45;;;;;;;0.57;0.57;;;;;;;;;;6216635;23;20462;-70
2024/01/23 02:38:11;;;;;;;4.33;1.00;;;;;;;;;;6216344;23;20442;-69
2024/01/23 02:40:37;;;;;;;0.63;0.63;;;;;;;;;;6216303;23;20375;-69
2024/01/23 02:43:03;;;;;;;0.60;0.60;;;;;;;;;;6216289;23;20458;-70
2024/01/23 02:45:29;;;;;;;7.73;1.03;;;;;;;;;;6215916;23;20371;-70
2024/01/23 02:47:55;;;;;;;0.50;0.50;;;;;;;;;;6216004;23;20402;-70
2024/01/23 02:50:21;;;;;;;0.87;0.87;;;;;;;;;;6216022;23;20865;-69
2024/01/23 02:52:49;;;;;;;5.50;1.10;;;;;;;;;;6215896;23;20892;-69
2024/01/23 02:55:15;;;;;;;0.80;0.80;;;;;;;;;;6216267;23;20378;-70
2024/01/23 02:57:41;;;;;;;5.13;1.07;;;;;;;;;;6216172;23;20422;-70
2024/01/23 03:00:08;;;;;;;1.93;1.00;;;;;;;;;;6215849;23;20423;-70
2024/01/23 03:02:34;;;;;;;6.03;0.80;;;;;;;;;;6215845;23;20387;-69
2024/01/23 03:05:00;;;;;;;4.17;0.80;;;;;;;;;;6215768;23;20438;-69
2024/01/23 03:07:26;;;;;;;1.77;0.60;;;;;;;;;;6215969;23;20445;-69
2024/01/23 03:09:52;;;;;;;1.73;0.97;;;;;;;;;;6215833;23;20383;-69
2024/01/23 03:12:19;;;;;;;5.60;1.63;;;;;;;;;;6216106;23;20462;-69
2024/01/23 03:14:46;;;;;;;3.80;1.07;;;;;;;;;;6216026;23;20375;-70
2024/01/23 03:17:12;;;;;;;0.93;0.70;;;;;;;;;;6216007;23;20510;-69
2024/01/23 03:19:38;;;;;;;3.93;0.60;;;;;;;;;;6216100;23;20387;-69
2024/01/23 03:22:05;;;;;;;5.20;1.10;;;;;;;;;;6215592;23;20462;-69
2024/01/23 03:24:31;;;;;;;1.60;0.97;;;;;;;;;;6216041;23;20380;-69
2024/01/23 03:26:57;;;;;;;1.53;1.03;;;;;;;;;;6215876;23;20518;-70
2024/01/23 03:29:27;;;;;;;2.57;1.40;;;;;;;;;;6215817;23;20712;-69
2024/01/23 03:31:53;;;;;;;2.73;0.83;;;;;;;;;;6215634;23;20379;-69
2024/01/23 03:34:19;;;;;;;1.57;0.97;;;;;;;;;;6215532;23;20433;-69
2024/01/23 03:36:45;;;;;;;0.97;0.70;;;;;;;;;;6215795;23;20380;-69
2024/01/23 03:39:12;;;;;;;2.60;1.10;;;;;;;;;;6215907;23;20406;-69
2024/01/23 03:41:38;;;;;;;5.00;1.37;;;;;;;;;;6215574;23;20384;-70
2024/01/23 03:44:06;;;;;;;1.70;1.07;;;;;;;;;;6215606;23;20374;-69
2024/01/23 03:46:32;;;;;;;5.83;0.90;;;;;;;;;;6215930;23;20386;-69
2024/01/23 03:48:58;;;;;;;0.90;0.73;;;;;;;;;;6215476;23;20461;-69
2024/01/23 03:51:24;;;;;;;6.00;1.20;;;;;;;;;;6215411;23;20403;-69
2024/01/23 03:53:50;;;;;;;2.67;1.63;;;;;;;;;;6215523;23;20440;-69
2024/01/23 03:56:16;;;;;;;2.77;1.03;;;;;;;;;;6215423;23;20700;-69
2024/01/23 03:58:43;;;;;;;8.83;1.00;;;;;;;;;;6215750;23;20430;-70
2024/01/23 04:01:09;;;;;;;4.07;1.00;;;;;;;;;;6215302;23;21068;-69
2024/01/23 04:03:35;;;;;;;0.83;0.83;;;;;;;;;;6215773;23;20380;-69
2024/01/23 04:06:01;;;;;;;4.73;1.40;;;;;;;;;;6215685;23;20429;-70
2024/01/23 04:08:27;;;;;;;2.93;0.80;;;;;;;;;;6215344;23;20445;-70
2024/01/23 04:10:53;;;;;;;6.53;1.13;;;;;;;;;;6215779;23;20383;-69
2024/01/23 04:13:19;;;;;;;4.43;1.30;;;;;;;;;;6215710;23;20417;-69
2024/01/23 04:15:45;;;;;;;5.43;1.27;;;;;;;;;;6215626;23;20923;-69
2024/01/23 04:18:11;;;;;;;4.47;0.80;;;;;;;;;;6215321;23;20449;-69
2024/01/23 04:20:38;;;;;;;2.50;1.03;;;;;;;;;;6215979;23;20495;-70
2024/01/23 04:23:04;;;;;;;6.60;1.10;;;;;;;;;;6215370;23;20381;-69
2024/01/23 04:25:30;;;;;;;4.63;0.97;;;;;;;;;;6214642;23;20860;-69
2024/01/23 04:27:57;;;;;;;0.93;0.93;;;;;;;;;;6215403;23;20718;-69
2024/01/23 04:30:23;;;;;;;5.03;1.17;;;;;;;;;;6215177;23;20382;-70
2024/01/23 04:32:49;;;;;;;6.50;0.90;;;;;;;;;;6215246;23;20441;-69
2024/01/23 04:35:16;;;;;;;4.47;1.10;;;;;;;;;;6215237;23;20375;-69
2024/01/23 04:37:42;;;;;;;3.77;1.17;;;;;;;;;;6215170;23;20908;-69
2024/01/23 04:40:08;;;;;;;4.23;0.63;;;;;;;;;;6215261;23;20871;-69
2024/01/23 04:42:35;;;;;;;3.97;1.60;;;;;;;;;;6188685;23;20422;-69
2024/01/23 04:45:01;;;;;;;5.17;1.43;;;;;;;;;;6188549;23;20390;-69
2024/01/23 04:47:27;;;;;;;3.13;1.03;;;;;;;;;;6215966;23;20462;-69
2024/01/23 04:49:53;;;;;;;4.47;1.70;;;;;;;;;;6215208;23;20379;-69
2024/01/23 04:52:19;;;;;;;4.80;1.17;;;;;;;;;;6215142;23;20403;-69
2024/01/23 04:54:45;;;;;;;3.80;0.97;;;;;;;;;;6215776;23;20380;-70
2024/01/23 04:57:14;;;;;;;1.53;1.20;;;;;;;;;;6216561;23;20453;-70
2024/01/23 04:59:39;;;;;;;12.50;1.40;;;;;;;;;;6216869;23;20442;-69
2024/01/23 05:02:05;;;;;;;7.30;1.30;;;;;;;;;;6216870;23;20397;-70
2024/01/23 05:04:31;;;;;;;7.80;1.83;;;;;;;;;;6217141;23;20445;-69
2024/01/23 05:06:57;;;;;;;4.60;1.63;;;;;;;;;;6216917;23;20378;-70
2024/01/23 05:09:24;;;;;;;2.10;0.80;;;;;;;;;;6216960;23;20915;-70
2024/01/23 05:11:50;;;;;;;11.13;1.70;;;;;;;;;;6217280;23;20379;-69
2024/01/23 05:14:17;;;;;;;1.73;1.10;;;;;;;;;;6217149;23;20387;-69
2024/01/23 05:16:43;;;;;;;5.63;1.97;;;;;;;;;;6217092;23;20894;-69
2024/01/23 05:19:09;;;;;;;3.90;1.83;;;;;;;;;;6216795;23;20898;-69
2024/01/23 05:21:35;;;;;;;8.97;1.20;;;;;;;;;;6216734;23;20387;-69
2024/01/23 05:24:04;;;;;;;5.17;1.50;;;;;;;;;;6217056;23;20390;-70
2024/01/23 05:26:30;;;;;;;3.13;1.10;;;;;;;;;;6217154;23;20465;-69
2024/01/23 05:28:56;;;;;;;4.60;1.27;;;;;;;;;;6216706;23;20421;-69
2024/01/23 05:31:22;;;;;;;6.03;1.27;;;;;;;;;;6217065;23;20383;-69
2024/01/23 05:33:48;;;;;;;12.20;2.70;;;;;;;;;;6216749;23;20387;-69
2024/01/23 05:36:14;;;;;;;3.97;1.13;;;;;;;;;;6216612;23;20375;-69
2024/01/23 05:38:40;;;;;;;5.30;1.67;;;;;;;;;;6216540;23;20864;-69
2024/01/23 05:41:06;;;;;;;6.53;1.87;;;;;;;;;;6217001;23;20415;-69
2024/01/23 05:43:32;;;;;;;5.27;1.80;;;;;;;;;;6216631;23;20384;-69
2024/01/23 05:45:58;;;;;;;14.07;1.57;;;;;;;;;;6216886;23;20371;-69
2024/01/23 05:48:24;;;;;;;5.60;1.40;;;;;;;;;;6216657;23;20390;-70
2024/01/23 05:50:50;;;;;;;3.23;1.67;;;;;;;;;;6190504;23;20382;-69
2024/01/23 05:53:16;;;;;;;5.67;2.20;;;;;;;;;;6216575;23;20383;-70
2024/01/23 05:55:42;;;;;;;7.63;1.47;;;;;;;;;;6216464;23;20430;-69
2024/01/23 05:58:09;;;;;;;5.80;1.83;;;;;;;;;;6216757;23;20981;-69
2024/01/23 06:00:35;;;;;;;4.63;0.90;;;;;;;;;;6216175;23;20500;-69
2024/01/23 06:03:01;;;;;;;4.97;1.30;;;;;;;;;;6217024;23;20371;-69
2024/01/23 06:05:27;;;;;;;12.63;1.90;;;;;;;;;;6216255;23;20814;-69
2024/01/23 06:07:53;;;;;;;3.17;1.67;;;;;;;;;;6217106;23;20395;-69
2024/01/23 06:10:20;;;;;;;6.73;1.70;;;;;;;;;;6216747;23;20383;-69
2024/01/23 06:12:46;;;;;;;3.50;1.33;;;;;;;;;;6216635;23;20383;-69
2024/01/23 06:15:12;;;;;;;5.83;2.00;;;;;;;;;;6216263;23;20856;-69
2024/01/23 06:17:37;;;;;;;3.40;1.43;;;;;;;;;;6216316;23;20866;-69
2024/01/23 06:20:04;;;;;;;2.70;2.03;;;;;;;;;;6216173;23;20419;-69
2024/01/23 06:22:34;;;;;;;8.07;2.10;;;;;;;;;;6216012;23;20367;-70
2024/01/23 06:25:00;;;;;;;4.83;1.67;;;;;;;;;;6216200;23;20726;-69
2024/01/23 06:27:26;;;;;;;2.70;1.23;;;;;;;;;;6217000;23;20367;-70
2024/01/23 06:29:52;;;;;;;4.20;1.50;;;;;;;;;;6216255;23;20458;-70
2024/01/23 06:32:18;;;;;;;9.77;1.37;;;;;;;;;;6216154;23;20410;-70
2024/01/23 06:34:44;;;;;;;2.30;1.53;;;;;;;;;;6215906;23;20375;-70
2024/01/23 06:37:10;;;;;;;7.30;1.60;;;;;;;;;;6216256;23;20434;-70
2024/01/23 06:39:36;;;;;;;6.13;2.27;;;;;;;;;;6216074;23;20885;-70
2024/01/23 06:42:02;;;;;;;2.10;1.73;;;;;;;;;;6215970;23;20523;-70
2024/01/23 06:44:28;;;;;;;5.07;1.80;;;;;;;;;;6216217;23;20406;-70
2024/01/23 06:46:54;;;;;;;7.30;1.80;;;;;;;;;;6216112;23;20441;-70
2024/01/23 06:49:22;;;;;;;9.57;2.00;;;;;;;;;;6216087;23;20391;-70
2024/01/23 06:51:48;;;;;;;5.43;1.57;;;;;;;;;;6189582;23;20403;-69
2024/01/23 06:54:14;;;;;;;5.03;1.20;;;;;;;;;;6215728;23;20457;-70
2024/01/23 06:56:40;;;;;;;2.23;1.40;;;;;;;;;;6215874;23;20472;-69
2024/01/23 06:59:06;;;;;;;14.60;2.07;;;;;;;;;;6215473;23;20434;-69
2024/01/23 07:01:32;;;;;;;8.67;2.23;;;;;;;;;;6215772;23;20744;-70
2024/01/23 07:03:58;;;;;;;6.67;1.20;;;;;;;;;;6215494;23;20363;-70
2024/01/23 07:06:24;;;;;;;6.63;1.40;;;;;;;;;;6215741;23;20375;-69
2024/01/23 07:08:50;;;;;;;6.90;2.20;;;;;;;;;;6216015;23;20379;-70
2024/01/23 07:11:16;;;;;;;3.87;1.70;;;;;;;;;;6215517;23;20893;-70
2024/01/23 07:13:42;;;;;;;10.73;2.80;;;;;;;;;;6215808;23;20371;-71
2024/01/23 07:16:08;;;;;;;7.00;1.90;;;;;;;;;;6215935;23;20375;-70
2024/01/23 07:18:34;;;;;;;5.43;1.73;;;;;;;;;;6215426;23;20999;-68
2024/01/23 07:21:00;;;;;;;12.40;2.23;;;;;;;;;;6215395;23;20367;-71
2024/01/23 07:23:26;;;;;;;6.67;4.87;;;;;;;;;;6215760;23;20390;-69
2024/01/23 07:25:52;;;;;;;2.63;2.40;;;;;;;;;;6215915;23;20426;-69
2024/01/23 07:28:17;;;;;;;3.17;1.57;;;;;;;;;;6215186;23;20746;-69
2024/01/23 07:30:43;;;;;;;10.83;1.47;;;;;;;;;;6215485;23;20403;-69
2024/01/23 07:33:10;;;;;;;3.23;1.30;;;;;;;;;;6215365;23;20376;-69
2024/01/23 07:35:35;;;;;;;5.30;1.77;;;;;;;;;;6215738;23;20379;-69
2024/01/23 07:38:02;;;;;;;3.47;1.57;;;;;;;;;;6189073;23;20829;-69
2024/01/23 07:40:28;;;;;;;5.40;1.53;;;;;;;;;;6216133;23;20393;-69
2024/01/23 07:42:54;;;;;;;3.10;1.07;;;;;;;;;;6215892;23;20445;-69
2024/01/23 07:45:20;;;;;;;6.37;1.33;;;;;;;;;;6215961;23;20375;-69
2024/01/23 07:47:46;;;;;;;6.63;1.27;;;;;;;;;;6215994;23;20375;-69
2024/01/23 07:50:12;;;;;;;1.63;1.37;;;;;;;;;;6215338;23;20474;-69
2024/01/23 07:52:39;;;;;;;3.23;1.20;;;;;;;;;;6215305;23;20466;-69
2024/01/23 07:55:05;;;;;;;10.30;2.00;;;;;;;;;;6215718;23;20414;-69
2024/01/23 07:57:31;;;;;;;21.67;6.80;;;;;;;;;;6215061;23;20423;-69
2024/01/23 07:59:57;;;;;;;1.60;1.50;;;;;;;;;;6215295;23;20978;-69
2024/01/23 08:02:25;;;;;;;5.50;1.50;;;;;;;;;;6214928;23;20453;-69
2024/01/23 08:04:51;;;;;;;6.17;1.77;;;;;;;;;;6216400;23;20376;-69
2024/01/23 08:07:17;;;;;;;6.93;1.70;;;;;;;;;;6215354;23;20375;-69
2024/01/23 08:09:43;;;;;;;3.30;1.60;;;;;;;;;;6215196;23;20381;-69
2024/01/23 08:12:09;;;;;;;2.60;1.33;;;;;;;;;;6215032;23;20437;-69
2024/01/23 08:14:35;;;;;;;4.33;1.70;;;;;;;;;;6215524;23;20462;-69
2024/01/23 08:17:01;;;;;;;4.73;1.30;;;;;;;;;;6215674;23;20454;-70
2024/01/23 08:19:27;;;;;;;3.60;2.00;;;;;;;;;;6215502;23;20398;-69
2024/01/23 08:21:53;;;;;;;4.87;2.13;;;;;;;;;;6215042;23;20705;-69
2024/01/23 08:24:19;;;;;;;7.40;2.30;;;;;;;;;;6214975;23;20445;-69
2024/01/23 08:26:47;;;;;;;6.83;2.33;;;;;;;;;;6215462;23;20745;-69
2024/01/23 08:29:13;;;;;;;5.57;1.50;;;;;;;;;;6215119;23;20403;-69
2024/01/23 08:31:39;;;;;;;5.53;2.53;;;;;;;;;;6216334;23;20367;-69
2024/01/23 08:34:05;;;;;;;4.70;1.20;;;;;;;;;;6217265;23;20386;-69
2024/01/23 08:36:31;;;;;;;14.30;3.03;;;;;;;;;;6217455;23;20379;-69
2024/01/23 08:38:57;;;;;;;9.67;3.43;;;;;;;;;;6216777;23;20438;-69
2024/01/23 08:41:24;;;;;;;2.80;1.80;;;;;;;;;;6217002;23;20377;-69
2024/01/23 08:43:50;;;;;;;7.67;2.20;;;;;;;;;;6217034;23;20420;-68
2024/01/23 08:46:16;;;;;;;5.07;2.47;;;;;;;;;;6189919;23;20393;-77
2024/01/23 08:48:42;;;;;;;5.60;2.10;;;;;;;;;;6217008;23;20450;-70
2024/01/23 08:51:08;;;;;;;8.93;2.23;;;;;;;;;;6190800;23;20383;-69
2024/01/23 08:53:34;;;;;;;4.23;1.80;;;;;;;;;;6216777;23;20371;-70
2024/01/23 08:56:00;;;;;;;3.50;1.53;;;;;;;;;;6217192;23;20394;-67
2024/01/23 08:58:26;;;;;;;5.10;1.33;;;;;;;;;;6216914;23;20434;-70
2024/01/23 09:00:52;;;;;;;3.10;1.50;;;;;;;;;;6216671;23;20889;-71
2024/01/23 09:03:18;;;;;;;8.73;1.80;;;;;;;;;;6216924;23;20744;-70
2024/01/23 09:05:44;;;;;;;4.90;1.90;;;;;;;;;;6216934;23;20442;-70
2024/01/23 09:08:10;;;;;;;7.60;2.23;;;;;;;;;;6217046;23;20701;-73
2024/01/23 09:10:36;;;;;;;4.40;2.20;;;;;;;;;;6216665;23;20403;-70
2024/01/23 09:13:02;;;;;;;8.13;2.93;;;;;;;;;;6216733;23;20386;-67
2024/01/23 09:15:28;;;;;;;6.53;2.17;;;;;;;;;;6216537;23;20382;-71
2024/01/23 09:17:54;;;;;;;7.00;2.10;;;;;;;;;;6217236;23;20505;-70
2024/01/23 09:20:20;;;;;;;11.50;2.47;;;;;;;;;;6216606;23;20832;-70
2024/01/23 09:22:46;;;;;;;3.47;2.00;;;;;;;;;;6216588;23;20686;-69
2024/01/23 09:25:12;;;;;;;2.43;1.60;;;;;;;;;;6216946;23;20375;-70
2024/01/23 09:27:38;;;;;;;3.50;1.40;;;;;;;;;;6216541;23;20382;-70
2024/01/23 09:30:04;;;;;;;1.30;1.00;;;;;;;;;;6216512;23;20444;-71
2024/01/23 09:32:30;;;;;;;5.13;1.50;;;;;;;;;;6216463;23;20379;-71
2024/01/23 09:34:56;;;;;;;9.70;1.90;;;;;;;;;;6216771;23;20379;-71
2024/01/23 09:37:22;;;;;;;2.77;1.40;;;;;;;;;;6216326;23;20419;-70
2024/01/23 09:39:48;;;;;;;3.90;1.87;;;;;;;;;;6216791;23;20398;-70
2024/01/23 09:42:15;;;;;;;4.13;1.47;;;;;;;;;;6216313;23;20383;-70
2024/01/23 09:44:41;;;;;;;6.67;2.33;;;;;;;;;;6216575;23;20372;-70
2024/01/23 09:47:09;;;;;;;3.73;2.00;;;;;;;;;;6216360;23;20861;-64
2024/01/23 09:49:36;;;;;;;6.00;1.10;;;;;;;;;;6216205;23;20723;-70
2024/01/23 09:52:04;;;;;;;3.93;1.67;;;;;;;;;;6216643;23;20383;-69
2024/01/23 09:54:31;;;;;;;6.33;1.03;;;;;;;;;;6216222;23;20387;-72
2024/01/23 09:56:57;;;;;;;3.83;1.43;;;;;;;;;;6216180;23;20367;-70
2024/01/23 09:59:23;;;;;;;2.83;1.97;;;;;;;;;;6215269;23;20515;-73
2024/01/23 10:01:49;;;;;;;6.70;1.87;;;;;;;;;;6216800;23;20838;-70
2024/01/23 10:04:19;;;;;;;3.20;1.80;;;;;;;;;;6216160;23;20833;-71
2024/01/23 10:06:45;;;;;;;8.73;1.70;;;;;;;;;;6188893;23;20383;-70
2024/01/23 10:09:12;;;;;;;4.43;1.60;;;;;;;;;;6216919;23;20372;-70
2024/01/23 10:11:39;;;;;;;6.70;1.83;;;;;;;;;;6216361;23;20376;-70
2024/01/23 10:14:06;;;;;;;7.80;1.83;;;;;;;;;;6216018;23;20371;-70
2024/01/23 10:16:32;;;;;;;11.77;1.80;;;;;;;;;;6216083;23;20382;-70
2024/01/23 10:18:59;;;;;;;6.10;1.47;;;;;;;;;;6189194;23;20445;-69
2024/01/23 10:21:25;;;;;;;6.33;2.07;;;;;;;;;;6215818;23;20372;-70
2024/01/23 10:23:52;;;;;;;6.67;1.80;;;;;;;;;;6215755;23;20881;-70
2024/01/23 10:26:18;;;;;;;9.40;1.90;;;;;;;;;;6215805;23;20367;-71
2024/01/23 10:28:45;;;;;;;4.67;1.33;;;;;;;;;;6215996;23;20394;-70
2024/01/23 10:31:11;;;;;;;2.47;2.27;;;;;;;;;;6215963;23;20441;-70
2024/01/23 10:33:37;;;;;;;6.53;1.77;;;;;;;;;;6216141;23;20780;-70
2024/01/23 10:36:08;;;;;;;2.30;1.50;;;;;;;;;;6216043;23;20390;-70
2024/01/23 10:38:35;;;;;;;7.97;1.77;;;;;;;;;;6216012;23;20517;-69
2024/01/23 10:41:03;;;;;;;7.50;1.70;;;;;;;;;;6216010;23;20415;-69
2024/01/23 10:43:30;;;;;;;3.47;1.50;;;;;;;;;;6216123;23;20711;-71
2024/01/23 10:45:57;;;;;;;5.20;1.57;;;;;;;;;;6215707;23;20461;-69
2024/01/23 10:48:23;;;;;;;8.17;4.27;;;;;;;;;;6216214;23;20375;-69
2024/01/23 10:50:52;;;;;;;5.10;3.07;;;;;;;;;;6216321;23;20371;-69
2024/01/23 10:53:19;;;;;;;9.73;5.83;;;;;;;;;;6215917;23;20375;-69
2024/01/23 10:55:46;;;;;;;8.00;3.63;;;;;;;;;;6216845;23;20371;-69
2024/01/23 10:58:19;;;;;;;8.80;4.57;;;;;;;;;;6215447;23;20431;-70
2024/01/23 11:00:47;;;;;;;7.80;4.90;;;;;;;;;;6215482;23;20427;-69
2024/01/23 11:03:13;;;;;;;5.03;2.20;;;;;;;;;;6215566;23;20722;-69
2024/01/23 11:05:54;;;;;;;7.47;5.27;;;;;;;;;;6215489;23;20936;-68
2024/01/23 11:08:20;;;;;;;5.13;3.00;;;;;;;;;;6215872;23;20418;-71
2024/01/23 11:10:53;;;;;;;2.70;2.57;;;;;;;;;;6188785;23;20739;-72
2024/01/23 11:13:19;;;;;;;6.00;3.80;;;;;;;;;;6215412;23;20390;-69
2024/01/23 11:15:45;;;;;;;19.43;6.90;;;;;;;;;;6215718;23;20711;-69
2024/01/23 11:18:32;;;;;;;18.87;3.43;;;;;;;;;;6215565;23;20430;-70
2024/01/23 11:21:10;;;;;;;6.67;3.80;;;;;;;;;;6216084;23;20363;-70
2024/01/23 11:23:43;;;;;;;17.80;9.63;;;;;;;;;;6216160;23;20355;-69
2024/01/23 11:26:18;;;;;;;14.27;5.17;;;;;;;;;;6215767;23;20426;-70
2024/01/23 11:28:48;;;;;;;12.00;6.80;;;;;;;;;;6215355;23;20864;-70
2024/01/23 11:31:22;;;;;;;7.67;5.30;;;;;;;;;;6215417;23;20375;-69
2024/01/23 11:33:49;;;;;;;6.20;5.40;;;;;;;;;;6215642;23;20379;-69
2024/01/23 11:36:22;;;;;;;5.63;4.33;;;;;;;;;;6215137;23;20849;-69
2024/01/23 11:38:49;;;;;;;9.80;2.93;;;;;;;;;;6215816;23;20439;-69
2024/01/23 11:41:21;;;;;;;6.20;3.90;;;;;;;;;;6215739;23;20379;-69
2024/01/23 11:43:48;;;;;;;3.33;3.10;;;;;;;;;;6215694;23;20371;-70
2024/01/23 11:46:14;;;;;;;9.83;3.23;;;;;;;;;;6215454;23;20379;-70
2024/01/23 11:48:41;;;;;;;8.70;7.40;;;;;;;;;;6215783;23;20414;-69
2024/01/23 11:51:07;;;;;;;7.37;3.93;;;;;;;;;;6215200;23;20375;-70
2024/01/23 11:53:37;;;;;;;8.67;3.27;;;;;;;;;;6215216;23;20449;-71
2024/01/23 11:56:04;;;;;;;5.77;2.17;;;;;;;;;;6215322;23;20379;-71
2024/01/23 11:58:30;;;;;;;6.70;3.33;;;;;;;;;;6215511;23;20431;-69
2024/01/23 12:00:57;;;;;;;7.53;2.13;;;;;;;;;;6215010;23;20505;-70
2024/01/23 12:03:23;;;;;;;3.17;2.23;;;;;;;;;;6216112;23;20406;-69
2024/01/23 12:05:51;;;;;;;10.63;2.90;;;;;;;;;;6216499;23;20844;-69
2024/01/23 12:08:17;;;;;;;10.57;2.90;;;;;;;;;;6218539;23;20383;-69
2024/01/23 12:10:43;;;;;;;5.03;3.47;;;;;;;;;;6218587;23;20399;-69
2024/01/23 12:13:10;;;;;;;9.80;3.23;;;;;;;;;;6218886;23;20389;-70
2024/01/23 12:15:36;;;;;;;8.60;4.70;;;;;;;;;;6218967;23;20371;-69
2024/01/23 12:18:02;;;;;;;3.53;2.60;;;;;;;;;;6218504;23;20433;-68
2024/01/23 12:20:28;;;;;;;9.70;3.00;;;;;;;;;;6218872;23;20407;-70
2024/01/23 12:22:54;;;;;;;21.27;2.00;;;;;;;;;;6218009;23;20383;-69
2024/01/23 12:25:20;;;;;;;6.57;2.20;;;;;;;;;;6219348;23;20421;-69
2024/01/23 12:27:48;;;;;;;13.80;6.50;;;;;;;;;;6218358;23;20383;-70
2024/01/23 12:30:14;;;;;;;18.43;8.23;;;;;;;;;;6218580;23;20379;-69
2024/01/23 12:32:47;;;;;;;15.27;4.50;;;;;;;;;;6218318;23;20765;-69
2024/01/23 12:35:13;;;;;;;15.83;4.50;;;;;;;;;;6217913;23;20362;-69
2024/01/23 12:37:40;;;;;;;5.80;2.87;;;;;;;;;;6218261;23;20431;-70
2024/01/23 12:40:09;;;;;;;10.70;3.87;;;;;;;;;;6218590;23;20394;-69
2024/01/23 12:42:36;;;;;;;11.57;4.17;;;;;;;;;;6192743;23;20379;-70
2024/01/23 12:45:02;;;;;;;13.57;2.87;;;;;;;;;;6218795;23;20466;-69
2024/01/23 12:47:28;;;;;;;8.13;3.10;;;;;;;;;;6218310;23;20465;-69
2024/01/23 12:49:54;;;;;;;8.83;2.33;;;;;;;;;;6218106;23;20899;-69
2024/01/23 12:52:20;;;;;;;7.77;2.97;;;;;;;;;;6219168;23;20457;-69
2024/01/23 12:54:46;;;;;;;12.13;3.80;;;;;;;;;;6218332;23;20375;-69
2024/01/23 12:57:12;;;;;;;18.70;8.00;;;;;;;;;;6217832;23;20371;-69
2024/01/23 12:59:39;;;;;;;27.13;13.20;;;;;;;;;;6218134;23;20484;-69
2024/01/23 13:02:07;;;;;;;19.73;11.00;;;;;;;;;;6218526;23;20383;-69
2024/01/23 13:04:33;;;;;;;28.53;10.37;;;;;;;;;;6218063;23;20454;-68
2024/01/23 13:07:01;;;;;;;11.63;6.77;;;;;;;;;;6218143;23;20845;-69
2024/01/23 13:09:27;;;;;;;10.70;4.60;;;;;;;;;;6218211;23;20441;-70
2024/01/23 13:11:53;;;;;;;17.90;3.47;;;;;;;;;;6218669;23;20457;-70
2024/01/23 13:14:20;;;;;;;8.70;2.60;;;;;;;;;;6191702;23;20399;-69
2024/01/23 13:16:46;;;;;;;12.17;3.27;;;;;;;;;;6190836;23;20478;-69
2024/01/23 13:19:12;;;;;;;6.40;4.27;;;;;;;;;;6216190;23;20573;-69
2024/01/23 13:24:42;;;;;;;16.40;6.57;;;;;;;;;;6216451;23;20358;-69
2024/01/23 13:27:08;;;;;;;14.80;5.57;;;;;;;;;;6215652;23;20376;-69
2024/01/23 13:29:37;;;;;;;17.90;8.10;;;;;;;;;;6216328;23;20416;-70
2024/01/23 13:32:05;;;;;;;22.53;5.47;;;;;;;;;;6216637;23;20383;-69
2024/01/23 13:34:32;;;;;;;17.50;4.80;;;;;;;;;;6216214;23;20852;-69
2024/01/23 13:36:58;;;;;;;15.50;4.80;;;;;;;;;;6216773;23;20391;-69
2024/01/23 13:39:24;;;;;;;21.10;7.37;;;;;;;;;;6216335;23;20418;-70
2024/01/23 13:41:50;;;;;;;16.70;4.83;;;;;;;;;;6216281;23;20387;-69
2024/01/23 13:44:16;;;;;;;20.37;6.10;;;;;;;;;;6189321;23;20912;-70
2024/01/23 13:46:42;;;;;;;21.50;5.63;;;;;;;;;;6216111;23;20446;-70
2024/01/23 13:49:08;;;;;;;20.73;5.57;;;;;;;;;;6216596;23;20458;-69
2024/01/23 13:51:35;;;;;;;13.77;3.70;;;;;;;;;;6216905;23;20414;-69
2024/01/23 13:54:01;;;;;;;17.03;4.23;;;;;;;;;;6216477;23;20379;-69
2024/01/23 13:56:27;;;;;;;21.23;7.13;;;;;;;;;;6217038;23;20386;-69
2024/01/23 13:58:53;;;;;;;6.63;3.37;;;;;;;;;;6215808;23;20434;-69
2024/01/23 14:01:19;;;;;;;30.83;10.87;;;;;;;;;;6216811;23;20371;-69
2024/01/23 14:03:45;;;;;;;11.20;3.30;;;;;;;;;;6216009;23;20383;-69
2024/01/23 14:06:11;;;;;;;9.00;4.43;;;;;;;;;;6216018;23;20450;-69
2024/01/23 14:08:42;;;;;;;21.30;6.00;;;;;;;;;;6216372;23;20381;-68
2024/01/23 14:11:09;;;;;;;16.00;5.30;;;;;;;;;;6216193;23;20668;-69
2024/01/23 14:13:36;;;;;;;10.07;3.30;;;;;;;;;;6216346;23;20387;-69
2024/01/23 14:16:02;;;;;;;12.77;4.77;;;;;;;;;;6215833;23;20681;-69
2024/01/23 14:18:28;;;;;;;24.30;9.00;;;;;;;;;;6216279;23;20843;-69
2024/01/23 14:20:54;;;;;;;31.53;12.10;;;;;;;;;;6189258;23;20465;-69
2024/01/23 14:23:20;;;;;;;12.33;3.83;;;;;;;;;;6215817;23;20873;-69
2024/01/23 14:25:46;;;;;;;5.87;3.87;;;;;;;;;;6215710;23;20403;-70
2024/01/23 14:28:12;;;;;;;10.40;3.20;;;;;;;;;;6215941;23;20379;-69
2024/01/23 14:30:38;;;;;;;10.40;5.73;;;;;;;;;;6215789;23;20399;-69
2024/01/23 14:33:04;;;;;;;8.63;4.87;;;;;;;;;;6216901;23;20388;-69
2024/01/23 14:35:30;;;;;;;17.13;4.93;;;;;;;;;;6216047;23;20445;-69
2024/01/23 14:37:56;;;;;;;15.43;3.73;;;;;;;;;;6215764;23;20778;-69
2024/01/23 14:40:25;;;;;;;12.20;3.53;;;;;;;;;;6216084;23;20375;-69